Content
SEND FEEDBACK

Daily
Averages
Monthly
Summary
Canada

MONTREAL, QUEBEC


Home > North America > Canada > Quebec
Elevation: 35 meters     Latitude: 45 28N     Longitude: 073 45W

WEATHER
 
SELECT A DAY
Number of Records: 202,573;   Date Range: 1/1/95 - 11/26/14
 
SHARE

PRINT THIS DATA

[ ← Previous Day ]
WEATHER ALMANAC - 1 JULY, 2013
[ Next Day → ]
[ °F ]   °C
We're sorry. There is no daily almanac available for Montreal, Quebec on 1 July, 2013.
WEATHER BY HOUR - 1 JULY, 2013
[ °F ]   °C
Local TimeTemperatureDewpointHumidityBarometerVisibilityWind DirectionWind SpeedGust SpeedPrecipitationEventsConditions
1:00 AM18 °C15 °C83 %1014.6 hPa24.1 kmNNW (340°)9.3 km/hPartly Cloudy
2:00 AM17.2 °C14.4 °C78 %1014.6 hPa24.1 kmNorth7.4 km/hClear
2:00 AM17 °C14 °C82 %1014.6 hPa24.1 kmNorth (360°)7.4 km/hScattered Clouds
3:00 AM17 °C14 °C82 %1014.6 hPa24.1 kmNorth (10°)7.4 km/hMostly Cloudy
4:00 AM17 °C14 °C82 %1014.9 hPa24.1 kmNNE (20°)9.3 km/hOvercast
5:00 AM16 °C14 °C88 %1015.6 hPa19.3 kmNorth (10°)7.4 km/hMostly Cloudy
6:00 AM17 °C14 °C82 %1016.3 hPa19.3 kmNNE (20°)13 km/hOvercast
7:00 AM17 °C14 °C82 %1016.9 hPa19.3 kmNNE (20°)14.8 km/hOvercast
8:00 AM18.3 °C13.9 °C67 %1017.3 hPa19.3 kmNNE (30°)18.5 km/hMostly Cloudy
8:00 AM19 °C14 °C73 %1017.3 hPa19.3 kmNNE (30°)20.4 km/hMostly Cloudy
9:00 AM19 °C13 °C68 %1017.9 hPa19.3 kmNNE (30°)18.5 km/hOvercast
10:00 AM20 °C13 °C64 %1018.6 hPa19.3 kmNNE (30°)16.7 km/hOvercast
11:00 AM21 °C13 °C60 %1019 hPa19.3 kmNE (50°)20.4 km/hOvercast
12:00 PM21 °C12 °C56 %1019 hPa24.1 kmNNE (30°)20.4 km/hOvercast
1:00 PM22 °C11 °C50 %1019 hPa24.1 kmNNE (30°)22.2 km/h31.5 km/hOvercast
2:00 PM22.2 °C11.1 °C38 %1019 hPa24.1 kmNNE (30°)24.1 km/hOvercast
2:00 PM22 °C11 °C50 %1019 hPa24.1 kmNNE (30°)18.5 km/h33.3 km/hOvercast
3:00 PM23 °C9 °C41 %1018.6 hPa24.1 kmENE (60°)24.1 km/hOvercast
4:00 PM23 °C11 °C47 %1019 hPa24.1 kmNE (50°)20.4 km/hOvercast
5:00 PM23 °C11 °C47 %1019 hPa24.1 kmNNE (30°)22.2 km/hOvercast
6:00 PM23 °C10 °C44 %1018.6 hPa24.1 kmNE (50°)18.5 km/hOvercast
7:00 PM22 °C10 °C46 %1019 hPa24.1 kmENE (60°)16.7 km/hOvercast
8:00 PM21.1 °C9.4 °C36 %1019.3 hPa24.1 kmNE (50°)20.4 km/hOvercast
8:00 PM21 °C9 °C46 %1019 hPa24.1 kmNE (50°)18.5 km/h31.5 km/hOvercast
9:00 PM21 °C8 °C43 %1019.6 hPa16.1 kmNE (50°)20.4 km/h31.5 km/hOvercast
10:00 PM21 °C8 °C43 %1020 hPa11.3 kmNE (50°)22.2 km/h37 km/hOvercast
10:42 PM21 °C7 °C40 %1020.7 hPa9.7 kmNE (50°)20.4 km/h31.5 km/hRainLight Rain
11:00 PM19 °C10 °C56 %1020.3 hPa9.7 kmENE (60°)16.7 km/hRainLight Rain
Hourly data recorded from CYUL, located 0 kilometers away from Montreal, Quebec







STORIES FROM OUR PARTNERS